sensor_id;sensor_type;location;lat;lon;timestamp;P1;durP1;ratioP1;P2;durP2;ratioP2
19664;SDS011;9980;51.020;7.772;2023-02-01T00:00:22;21.57;;;16.00;;
19664;SDS011;9980;51.020;7.772;2023-02-01T00:02:49;27.33;;;16.93;;
19664;SDS011;9980;51.020;7.772;2023-02-01T00:05:15;25.83;;;18.10;;
19664;SDS011;9980;51.020;7.772;2023-02-01T00:07:42;26.57;;;16.67;;
19664;SDS011;9980;51.020;7.772;2023-02-01T00:10:08;22.93;;;17.10;;
19664;SDS011;9980;51.020;7.772;2023-02-01T00:12:35;21.33;;;16.00;;
19664;SDS011;9980;51.020;7.772;2023-02-01T00:15:01;23.60;;;16.10;;
19664;SDS011;9980;51.020;7.772;2023-02-01T00:17:28;21.07;;;15.43;;
19664;SDS011;9980;51.020;7.772;2023-02-01T00:19:54;22.30;;;16.17;;
19664;SDS011;9980;51.020;7.772;2023-02-01T00:22:20;21.63;;;15.80;;
19664;SDS011;9980;51.020;7.772;2023-02-01T00:24:46;24.03;;;14.40;;
19664;SDS011;9980;51.020;7.772;2023-02-01T00:27:12;24.00;;;14.70;;
19664;SDS011;9980;51.020;7.772;2023-02-01T00:29:43;25.10;;;16.20;;
19664;SDS011;9980;51.020;7.772;2023-02-01T00:32:10;23.13;;;14.33;;
19664;SDS011;9980;51.020;7.772;2023-02-01T00:34:37;22.50;;;14.73;;
19664;SDS011;9980;51.020;7.772;2023-02-01T00:37:03;24.70;;;14.53;;
19664;SDS011;9980;51.020;7.772;2023-02-01T00:39:29;21.57;;;13.50;;
19664;SDS011;9980;51.020;7.772;2023-02-01T00:41:55;23.17;;;13.33;;
19664;SDS011;9980;51.020;7.772;2023-02-01T00:44:21;19.03;;;12.73;;
19664;SDS011;9980;51.020;7.772;2023-02-01T00:46:48;17.30;;;12.70;;
19664;SDS011;9980;51.020;7.772;2023-02-01T00:49:14;18.10;;;12.50;;
19664;SDS011;9980;51.020;7.772;2023-02-01T00:51:40;19.83;;;12.53;;
19664;SDS011;9980;51.020;7.772;2023-02-01T00:54:06;21.83;;;12.43;;
19664;SDS011;9980;51.020;7.772;2023-02-01T00:56:32;19.10;;;11.70;;
19664;SDS011;9980;51.020;7.772;2023-02-01T00:58:59;22.07;;;11.97;;
19664;SDS011;9980;51.020;7.772;2023-02-01T01:01:26;20.17;;;11.07;;
19664;SDS011;9980;51.020;7.772;2023-02-01T01:03:57;20.17;;;10.67;;
19664;SDS011;9980;51.020;7.772;2023-02-01T01:06:27;23.07;;;11.40;;
19664;SDS011;9980;51.020;7.772;2023-02-01T01:08:57;25.00;;;11.47;;
19664;SDS011;9980;51.020;7.772;2023-02-01T01:11:27;16.10;;;10.47;;
19664;SDS011;9980;51.020;7.772;2023-02-01T01:13:57;18.23;;;10.13;;
19664;SDS011;9980;51.020;7.772;2023-02-01T01:16:25;17.10;;;9.87;;
19664;SDS011;9980;51.020;7.772;2023-02-01T01:18:54;22.50;;;10.40;;
19664;SDS011;9980;51.020;7.772;2023-02-01T01:21:21;14.17;;;9.47;;
19664;SDS011;9980;51.020;7.772;2023-02-01T01:23:48;14.23;;;9.73;;
19664;SDS011;9980;51.020;7.772;2023-02-01T01:26:22;17.00;;;9.30;;
19664;SDS011;9980;51.020;7.772;2023-02-01T01:28:51;24.50;;;9.73;;
19664;SDS011;9980;51.020;7.772;2023-02-01T01:31:18;17.37;;;9.10;;
19664;SDS011;9980;51.020;7.772;2023-02-01T01:33:50;14.67;;;9.10;;
19664;SDS011;9980;51.020;7.772;2023-02-01T01:36:19;16.63;;;9.47;;
19664;SDS011;9980;51.020;7.772;2023-02-01T01:38:46;28.90;;;9.73;;
19664;SDS011;9980;51.020;7.772;2023-02-01T01:41:14;18.50;;;8.87;;
19664;SDS011;9980;51.020;7.772;2023-02-01T01:43:58;19.33;;;9.13;;
19664;SDS011;9980;51.020;7.772;2023-02-01T01:46:52;13.43;;;9.10;;
19664;SDS011;9980;51.020;7.772;2023-02-01T01:49:20;17.43;;;10.43;;
19664;SDS011;9980;51.020;7.772;2023-02-01T01:51:51;19.03;;;10.13;;
19664;SDS011;9980;51.020;7.772;2023-02-01T01:54:27;18.87;;;10.97;;
19664;SDS011;9980;51.020;7.772;2023-02-01T01:57:10;15.67;;;10.47;;
19664;SDS011;9980;51.020;7.772;2023-02-01T01:59:59;18.47;;;10.83;;
19664;SDS011;9980;51.020;7.772;2023-02-01T02:02:43;20.87;;;12.47;;
19664;SDS011;9980;51.020;7.772;2023-02-01T02:05:14;16.23;;;11.57;;
19664;SDS011;9980;51.020;7.772;2023-02-01T02:07:45;18.20;;;11.70;;
19664;SDS011;9980;51.020;7.772;2023-02-01T02:10:15;19.13;;;11.80;;
19664;SDS011;9980;51.020;7.772;2023-02-01T02:12:43;26.10;;;10.70;;
19664;SDS011;9980;51.020;7.772;2023-02-01T02:15:14;15.67;;;10.27;;
19664;SDS011;9980;51.020;7.772;2023-02-01T02:26:38;12.47;;;7.83;;
19664;SDS011;9980;51.020;7.772;2023-02-01T02:29:17;11.70;;;7.60;;
19664;SDS011;9980;51.020;7.772;2023-02-01T02:32:13;16.53;;;6.97;;
19664;SDS011;9980;51.020;7.772;2023-02-01T02:41:12;10.70;;;6.23;;
19664;SDS011;9980;51.020;7.772;2023-02-01T02:44:08;12.73;;;6.40;;
19664;SDS011;9980;51.020;7.772;2023-02-01T02:47:02;20.27;;;6.70;;
19664;SDS011;9980;51.020;7.772;2023-02-01T02:53:05;15.33;;;6.43;;
19664;SDS011;9980;51.020;7.772;2023-02-01T02:56:03;9.70;;;5.70;;
19664;SDS011;9980;51.020;7.772;2023-02-01T02:58:52;17.73;;;6.17;;
19664;SDS011;9980;51.020;7.772;2023-02-01T03:01:39;11.93;;;5.80;;
19664;SDS011;9980;51.020;7.772;2023-02-01T03:04:26;11.70;;;5.13;;
19664;SDS011;9980;51.020;7.772;2023-02-01T03:06:53;12.67;;;5.80;;
19664;SDS011;9980;51.020;7.772;2023-02-01T03:09:24;18.93;;;5.50;;
19664;SDS011;9980;51.020;7.772;2023-02-01T03:11:59;11.27;;;5.47;;
19664;SDS011;9980;51.020;7.772;2023-02-01T03:14:54;10.63;;;5.10;;
19664;SDS011;9980;51.020;7.772;2023-02-01T03:17:32;10.77;;;5.23;;
19664;SDS011;9980;51.020;7.772;2023-02-01T03:20:08;12.50;;;4.50;;
19664;SDS011;9980;51.020;7.772;2023-02-01T03:22:39;8.20;;;4.97;;
19664;SDS011;9980;51.020;7.772;2023-02-01T03:25:16;12.43;;;4.33;;
19664;SDS011;9980;51.020;7.772;2023-02-01T03:27:52;10.17;;;4.67;;
19664;SDS011;9980;51.020;7.772;2023-02-01T03:30:34;16.03;;;5.10;;
19664;SDS011;9980;51.020;7.772;2023-02-01T03:33:06;9.47;;;4.67;;
19664;SDS011;9980;51.020;7.772;2023-02-01T03:41:47;9.47;;;5.60;;
19664;SDS011;9980;51.020;7.772;2023-02-01T03:44:20;16.93;;;5.17;;
19664;SDS011;9980;51.020;7.772;2023-02-01T03:46:59;12.70;;;5.10;;
19664;SDS011;9980;51.020;7.772;2023-02-01T03:49:38;12.37;;;6.40;;
19664;SDS011;9980;51.020;7.772;2023-02-01T03:52:11;13.67;;;4.97;;
19664;SDS011;9980;51.020;7.772;2023-02-01T03:54:43;11.20;;;4.70;;
19664;SDS011;9980;51.020;7.772;2023-02-01T03:57:13;12.77;;;5.93;;
19664;SDS011;9980;51.020;7.772;2023-02-01T03:59:46;11.00;;;5.30;;
19664;SDS011;9980;51.020;7.772;2023-02-01T04:02:12;11.43;;;4.90;;
19664;SDS011;9980;51.020;7.772;2023-02-01T04:04:38;12.03;;;5.70;;
19664;SDS011;9980;51.020;7.772;2023-02-01T04:07:05;13.83;;;5.33;;
19664;SDS011;9980;51.020;7.772;2023-02-01T04:09:31;16.07;;;5.63;;
19664;SDS011;9980;51.020;7.772;2023-02-01T04:11:57;12.37;;;5.13;;
19664;SDS011;9980;51.020;7.772;2023-02-01T04:14:24;8.43;;;4.93;;
19664;SDS011;9980;51.020;7.772;2023-02-01T04:16:50;13.37;;;5.07;;
19664;SDS011;9980;51.020;7.772;2023-02-01T04:19:16;15.43;;;5.93;;
19664;SDS011;9980;51.020;7.772;2023-02-01T04:21:43;16.70;;;5.63;;
19664;SDS011;9980;51.020;7.772;2023-02-01T04:24:09;15.60;;;6.27;;
19664;SDS011;9980;51.020;7.772;2023-02-01T04:26:35;15.83;;;5.40;;
19664;SDS011;9980;51.020;7.772;2023-02-01T04:29:02;9.73;;;4.77;;
19664;SDS011;9980;51.020;7.772;2023-02-01T04:31:28;15.23;;;5.80;;
19664;SDS011;9980;51.020;7.772;2023-02-01T04:33:55;12.87;;;6.23;;
19664;SDS011;9980;51.020;7.772;2023-02-01T04:36:22;13.10;;;6.07;;
19664;SDS011;9980;51.020;7.772;2023-02-01T04:38:49;15.13;;;5.97;;
19664;SDS011;9980;51.020;7.772;2023-02-01T04:41:17;15.00;;;5.50;;
19664;SDS011;9980;51.020;7.772;2023-02-01T04:43:47;14.23;;;7.00;;
19664;SDS011;9980;51.020;7.772;2023-02-01T04:46:16;12.93;;;6.13;;
19664;SDS011;9980;51.020;7.772;2023-02-01T04:48:42;15.40;;;6.90;;
19664;SDS011;9980;51.020;7.772;2023-02-01T04:51:09;16.23;;;7.07;;
19664;SDS011;9980;51.020;7.772;2023-02-01T04:53:36;10.17;;;5.50;;
19664;SDS011;9980;51.020;7.772;2023-02-01T04:56:02;16.80;;;6.40;;
19664;SDS011;9980;51.020;7.772;2023-02-01T04:58:29;13.90;;;5.83;;
19664;SDS011;9980;51.020;7.772;2023-02-01T05:00:55;14.80;;;6.03;;
19664;SDS011;9980;51.020;7.772;2023-02-01T05:03:22;13.87;;;6.63;;
19664;SDS011;9980;51.020;7.772;2023-02-01T05:05:48;22.10;;;6.93;;
19664;SDS011;9980;51.020;7.772;2023-02-01T05:08:15;14.40;;;6.67;;
19664;SDS011;9980;51.020;7.772;2023-02-01T05:10:41;10.00;;;6.50;;
19664;SDS011;9980;51.020;7.772;2023-02-01T05:13:08;12.40;;;5.97;;
19664;SDS011;9980;51.020;7.772;2023-02-01T05:15:54;14.23;;;5.70;;
19664;SDS011;9980;51.020;7.772;2023-02-01T05:18:20;16.97;;;6.53;;
19664;SDS011;9980;51.020;7.772;2023-02-01T05:20:46;13.53;;;6.13;;
19664;SDS011;9980;51.020;7.772;2023-02-01T05:23:13;15.33;;;6.60;;
19664;SDS011;9980;51.020;7.772;2023-02-01T05:25:39;23.23;;;6.20;;
19664;SDS011;9980;51.020;7.772;2023-02-01T05:28:05;12.47;;;6.23;;
19664;SDS011;9980;51.020;7.772;2023-02-01T05:30:32;9.00;;;5.87;;
19664;SDS011;9980;51.020;7.772;2023-02-01T05:33:00;15.30;;;6.40;;
19664;SDS011;9980;51.020;7.772;2023-02-01T05:35:28;14.10;;;6.00;;
19664;SDS011;9980;51.020;7.772;2023-02-01T05:37:54;15.67;;;6.53;;
19664;SDS011;9980;51.020;7.772;2023-02-01T05:40:21;21.03;;;7.60;;
19664;SDS011;9980;51.020;7.772;2023-02-01T05:42:47;13.23;;;7.17;;
19664;SDS011;9980;51.020;7.772;2023-02-01T05:45:14;16.07;;;6.70;;
19664;SDS011;9980;51.020;7.772;2023-02-01T05:47:40;19.83;;;7.10;;
19664;SDS011;9980;51.020;7.772;2023-02-01T05:50:06;16.37;;;7.33;;
19664;SDS011;9980;51.020;7.772;2023-02-01T05:52:33;14.73;;;7.23;;
19664;SDS011;9980;51.020;7.772;2023-02-01T05:54:59;12.00;;;7.53;;
19664;SDS011;9980;51.020;7.772;2023-02-01T05:57:25;17.70;;;8.27;;
19664;SDS011;9980;51.020;7.772;2023-02-01T05:59:51;21.20;;;8.03;;
19664;SDS011;9980;51.020;7.772;2023-02-01T06:02:18;24.37;;;7.87;;
19664;SDS011;9980;51.020;7.772;2023-02-01T06:04:44;16.27;;;7.87;;
19664;SDS011;9980;51.020;7.772;2023-02-01T06:07:10;23.17;;;7.23;;
19664;SDS011;9980;51.020;7.772;2023-02-01T06:09:37;19.97;;;7.63;;
19664;SDS011;9980;51.020;7.772;2023-02-01T06:12:03;22.47;;;8.13;;
19664;SDS011;9980;51.020;7.772;2023-02-01T06:14:30;19.33;;;7.77;;
19664;SDS011;9980;51.020;7.772;2023-02-01T06:16:56;13.63;;;7.63;;
19664;SDS011;9980;51.020;7.772;2023-02-01T06:19:22;12.47;;;6.97;;
19664;SDS011;9980;51.020;7.772;2023-02-01T06:21:49;15.43;;;7.70;;
19664;SDS011;9980;51.020;7.772;2023-02-01T06:24:16;15.63;;;7.37;;
19664;SDS011;9980;51.020;7.772;2023-02-01T06:26:42;14.00;;;6.77;;
19664;SDS011;9980;51.020;7.772;2023-02-01T06:29:09;14.57;;;6.87;;
19664;SDS011;9980;51.020;7.772;2023-02-01T06:31:36;19.60;;;7.80;;
19664;SDS011;9980;51.020;7.772;2023-02-01T06:34:02;14.10;;;7.47;;
19664;SDS011;9980;51.020;7.772;2023-02-01T06:36:29;19.33;;;7.93;;
19664;SDS011;9980;51.020;7.772;2023-02-01T06:38:55;12.03;;;7.37;;
19664;SDS011;9980;51.020;7.772;2023-02-01T06:41:22;15.33;;;7.50;;
19664;SDS011;9980;51.020;7.772;2023-02-01T06:43:49;15.00;;;7.13;;
19664;SDS011;9980;51.020;7.772;2023-02-01T06:46:15;16.60;;;8.03;;
19664;SDS011;9980;51.020;7.772;2023-02-01T06:48:41;13.43;;;7.40;;
19664;SDS011;9980;51.020;7.772;2023-02-01T06:51:20;17.50;;;7.90;;
19664;SDS011;9980;51.020;7.772;2023-02-01T06:53:49;14.33;;;7.67;;
19664;SDS011;9980;51.020;7.772;2023-02-01T06:56:16;16.33;;;7.40;;
19664;SDS011;9980;51.020;7.772;2023-02-01T06:58:43;13.33;;;7.90;;
19664;SDS011;9980;51.020;7.772;2023-02-01T07:01:10;17.67;;;7.60;;
19664;SDS011;9980;51.020;7.772;2023-02-01T07:03:37;15.90;;;7.50;;
19664;SDS011;9980;51.020;7.772;2023-02-01T07:06:04;17.20;;;7.73;;
19664;SDS011;9980;51.020;7.772;2023-02-01T07:08:32;19.67;;;8.33;;
19664;SDS011;9980;51.020;7.772;2023-02-01T07:11:04;15.63;;;7.37;;
19664;SDS011;9980;51.020;7.772;2023-02-01T07:13:33;16.30;;;7.10;;
19664;SDS011;9980;51.020;7.772;2023-02-01T07:16:00;14.17;;;8.37;;
19664;SDS011;9980;51.020;7.772;2023-02-01T07:18:30;12.13;;;7.27;;
19664;SDS011;9980;51.020;7.772;2023-02-01T07:20:58;14.57;;;7.43;;
19664;SDS011;9980;51.020;7.772;2023-02-01T07:23:25;13.83;;;7.53;;
19664;SDS011;9980;51.020;7.772;2023-02-01T07:26:02;18.20;;;7.73;;
19664;SDS011;9980;51.020;7.772;2023-02-01T07:28:32;16.03;;;7.03;;
19664;SDS011;9980;51.020;7.772;2023-02-01T07:31:04;18.83;;;7.03;;
19664;SDS011;9980;51.020;7.772;2023-02-01T07:33:36;12.10;;;7.17;;
19664;SDS011;9980;51.020;7.772;2023-02-01T07:36:04;13.83;;;6.93;;
19664;SDS011;9980;51.020;7.772;2023-02-01T07:38:32;20.07;;;7.40;;
19664;SDS011;9980;51.020;7.772;2023-02-01T07:41:03;19.20;;;8.23;;
19664;SDS011;9980;51.020;7.772;2023-02-01T07:43:33;14.33;;;7.20;;
19664;SDS011;9980;51.020;7.772;2023-02-01T07:46:01;13.17;;;6.90;;
19664;SDS011;9980;51.020;7.772;2023-02-01T07:48:29;15.60;;;6.73;;
19664;SDS011;9980;51.020;7.772;2023-02-01T07:51:08;13.47;;;7.30;;
19664;SDS011;9980;51.020;7.772;2023-02-01T07:53:38;19.03;;;7.40;;
19664;SDS011;9980;51.020;7.772;2023-02-01T07:56:10;19.87;;;9.83;;
19664;SDS011;9980;51.020;7.772;2023-02-01T07:58:41;16.97;;;6.67;;
19664;SDS011;9980;51.020;7.772;2023-02-01T08:01:15;13.73;;;8.73;;
19664;SDS011;9980;51.020;7.772;2023-02-01T08:03:48;13.63;;;6.93;;
19664;SDS011;9980;51.020;7.772;2023-02-01T08:06:21;15.63;;;7.03;;
19664;SDS011;9980;51.020;7.772;2023-02-01T08:08:49;16.73;;;7.33;;
19664;SDS011;9980;51.020;7.772;2023-02-01T08:11:16;13.27;;;7.10;;
19664;SDS011;9980;51.020;7.772;2023-02-01T08:13:43;20.67;;;8.17;;
19664;SDS011;9980;51.020;7.772;2023-02-01T08:16:10;18.30;;;7.80;;
19664;SDS011;9980;51.020;7.772;2023-02-01T08:18:39;15.13;;;8.07;;
19664;SDS011;9980;51.020;7.772;2023-02-01T08:21:11;16.23;;;7.43;;
19664;SDS011;9980;51.020;7.772;2023-02-01T08:23:40;18.00;;;8.90;;
19664;SDS011;9980;51.020;7.772;2023-02-01T08:26:11;18.10;;;8.67;;
19664;SDS011;9980;51.020;7.772;2023-02-01T08:28:42;15.83;;;8.50;;
19664;SDS011;9980;51.020;7.772;2023-02-01T08:31:16;16.97;;;8.13;;
19664;SDS011;9980;51.020;7.772;2023-02-01T08:33:48;17.53;;;8.33;;
19664;SDS011;9980;51.020;7.772;2023-02-01T08:36:18;20.53;;;9.13;;
19664;SDS011;9980;51.020;7.772;2023-02-01T08:38:45;16.30;;;8.63;;
19664;SDS011;9980;51.020;7.772;2023-02-01T08:41:13;24.77;;;14.30;;
19664;SDS011;9980;51.020;7.772;2023-02-01T08:43:43;42.20;;;22.53;;
19664;SDS011;9980;51.020;7.772;2023-02-01T08:46:10;31.43;;;14.77;;
19664;SDS011;9980;51.020;7.772;2023-02-01T08:48:37;17.90;;;10.40;;
19664;SDS011;9980;51.020;7.772;2023-02-01T08:51:05;28.63;;;17.87;;
19664;SDS011;9980;51.020;7.772;2023-02-01T08:53:37;18.20;;;10.20;;
19664;SDS011;9980;51.020;7.772;2023-02-01T08:56:06;22.70;;;10.60;;
19664;SDS011;9980;51.020;7.772;2023-02-01T08:58:35;12.83;;;8.77;;
19664;SDS011;9980;51.020;7.772;2023-02-01T09:01:19;20.10;;;9.00;;
19664;SDS011;9980;51.020;7.772;2023-02-01T09:03:46;24.00;;;9.13;;
19664;SDS011;9980;51.020;7.772;2023-02-01T09:06:13;17.20;;;8.70;;
19664;SDS011;9980;51.020;7.772;2023-02-01T09:08:40;16.70;;;8.83;;
19664;SDS011;9980;51.020;7.772;2023-02-01T09:11:10;14.70;;;8.63;;
19664;SDS011;9980;51.020;7.772;2023-02-01T09:13:40;20.17;;;9.33;;
19664;SDS011;9980;51.020;7.772;2023-02-01T09:16:06;14.10;;;8.77;;
19664;SDS011;9980;51.020;7.772;2023-02-01T09:18:32;22.30;;;9.70;;
19664;SDS011;9980;51.020;7.772;2023-02-01T09:20:59;16.33;;;8.43;;
19664;SDS011;9980;51.020;7.772;2023-02-01T09:23:33;14.70;;;8.57;;
19664;SDS011;9980;51.020;7.772;2023-02-01T09:26:00;10.93;;;7.47;;
19664;SDS011;9980;51.020;7.772;2023-02-01T09:28:28;12.10;;;8.33;;
19664;SDS011;9980;51.020;7.772;2023-02-01T09:30:56;15.33;;;8.40;;
19664;SDS011;9980;51.020;7.772;2023-02-01T09:33:24;14.53;;;7.87;;
19664;SDS011;9980;51.020;7.772;2023-02-01T09:35:56;19.07;;;7.77;;
19664;SDS011;9980;51.020;7.772;2023-02-01T09:38:24;22.23;;;8.13;;
19664;SDS011;9980;51.020;7.772;2023-02-01T09:40:52;16.13;;;7.97;;
19664;SDS011;9980;51.020;7.772;2023-02-01T09:43:35;20.23;;;8.10;;
19664;SDS011;9980;51.020;7.772;2023-02-01T09:46:20;12.77;;;7.50;;
19664;SDS011;9980;51.020;7.772;2023-02-01T09:48:53;18.20;;;10.03;;
19664;SDS011;9980;51.020;7.772;2023-02-01T09:51:26;17.33;;;8.30;;
19664;SDS011;9980;51.020;7.772;2023-02-01T09:56:53;18.27;;;8.80;;
19664;SDS011;9980;51.020;7.772;2023-02-01T09:59:34;13.97;;;8.20;;
19664;SDS011;9980;51.020;7.772;2023-02-01T10:02:37;13.47;;;7.57;;
19664;SDS011;9980;51.020;7.772;2023-02-01T10:05:11;13.57;;;8.03;;
19664;SDS011;9980;51.020;7.772;2023-02-01T10:15:44;13.73;;;7.70;;
19664;SDS011;9980;51.020;7.772;2023-02-01T10:27:23;22.53;;;9.67;;
19664;SDS011;9980;51.020;7.772;2023-02-01T10:30:19;13.77;;;8.07;;
19664;SDS011;9980;51.020;7.772;2023-02-01T10:32:52;16.80;;;8.30;;
19664;SDS011;9980;51.020;7.772;2023-02-01T10:35:31;13.83;;;8.33;;
19664;SDS011;9980;51.020;7.772;2023-02-01T10:38:04;14.17;;;9.33;;
19664;SDS011;9980;51.020;7.772;2023-02-01T10:40:52;17.77;;;8.10;;
19664;SDS011;9980;51.020;7.772;2023-02-01T10:43:22;16.20;;;9.13;;
19664;SDS011;9980;51.020;7.772;2023-02-01T10:45:48;11.37;;;8.33;;
19664;SDS011;9980;51.020;7.772;2023-02-01T10:48:15;21.33;;;10.23;;
19664;SDS011;9980;51.020;7.772;2023-02-01T10:50:56;16.47;;;9.67;;
19664;SDS011;9980;51.020;7.772;2023-02-01T10:53:35;14.47;;;8.60;;
19664;SDS011;9980;51.020;7.772;2023-02-01T10:56:21;14.60;;;8.23;;
19664;SDS011;9980;51.020;7.772;2023-02-01T10:58:50;20.90;;;9.20;;
19664;SDS011;9980;51.020;7.772;2023-02-01T11:01:28;17.43;;;9.43;;
19664;SDS011;9980;51.020;7.772;2023-02-01T11:04:01;23.50;;;13.90;;
19664;SDS011;9980;51.020;7.772;2023-02-01T11:06:33;12.63;;;9.23;;
19664;SDS011;9980;51.020;7.772;2023-02-01T11:11:55;17.63;;;8.47;;
19664;SDS011;9980;51.020;7.772;2023-02-01T11:19:45;16.27;;;8.87;;
19664;SDS011;9980;51.020;7.772;2023-02-01T11:22:22;16.10;;;8.07;;
19664;SDS011;9980;51.020;7.772;2023-02-01T11:24:53;18.83;;;9.07;;
19664;SDS011;9980;51.020;7.772;2023-02-01T11:27:20;15.60;;;8.70;;
19664;SDS011;9980;51.020;7.772;2023-02-01T11:29:56;18.03;;;8.43;;
19664;SDS011;9980;51.020;7.772;2023-02-01T11:32:29;15.80;;;7.97;;
19664;SDS011;9980;51.020;7.772;2023-02-01T11:34:57;14.83;;;8.13;;
19664;SDS011;9980;51.020;7.772;2023-02-01T11:37:40;17.53;;;7.40;;
19664;SDS011;9980;51.020;7.772;2023-02-01T11:42:54;17.13;;;7.30;;
19664;SDS011;9980;51.020;7.772;2023-02-01T11:45:24;14.40;;;7.00;;
19664;SDS011;9980;51.020;7.772;2023-02-01T11:48:07;11.37;;;6.70;;
19664;SDS011;9980;51.020;7.772;2023-02-01T11:54:01;9.50;;;6.50;;
19664;SDS011;9980;51.020;7.772;2023-02-01T12:03:05;13.37;;;6.40;;
19664;SDS011;9980;51.020;7.772;2023-02-01T12:05:47;16.47;;;6.97;;
19664;SDS011;9980;51.020;7.772;2023-02-01T12:08:52;13.63;;;6.57;;
19664;SDS011;9980;51.020;7.772;2023-02-01T12:23:34;11.03;;;7.00;;
19664;SDS011;9980;51.020;7.772;2023-02-01T12:26:31;21.37;;;7.33;;
19664;SDS011;9980;51.020;7.772;2023-02-01T12:29:21;12.53;;;6.70;;
19664;SDS011;9980;51.020;7.772;2023-02-01T12:35:27;18.23;;;6.87;;
19664;SDS011;9980;51.020;7.772;2023-02-01T12:40:54;18.53;;;8.33;;
19664;SDS011;9980;51.020;7.772;2023-02-01T12:46:09;13.60;;;7.03;;
19664;SDS011;9980;51.020;7.772;2023-02-01T12:49:00;11.87;;;7.87;;
19664;SDS011;9980;51.020;7.772;2023-02-01T12:51:36;16.77;;;8.00;;
19664;SDS011;9980;51.020;7.772;2023-02-01T12:54:10;11.50;;;7.53;;
19664;SDS011;9980;51.020;7.772;2023-02-01T12:57:01;14.17;;;7.23;;
19664;SDS011;9980;51.020;7.772;2023-02-01T12:59:38;13.80;;;8.20;;
19664;SDS011;9980;51.020;7.772;2023-02-01T13:02:51;17.47;;;7.63;;
19664;SDS011;9980;51.020;7.772;2023-02-01T13:08:26;14.23;;;6.77;;
19664;SDS011;9980;51.020;7.772;2023-02-01T13:14:03;9.17;;;6.50;;
19664;SDS011;9980;51.020;7.772;2023-02-01T13:16:42;14.00;;;7.23;;
19664;SDS011;9980;51.020;7.772;2023-02-01T13:19:27;17.47;;;7.37;;
19664;SDS011;9980;51.020;7.772;2023-02-01T13:22:34;15.33;;;6.93;;
19664;SDS011;9980;51.020;7.772;2023-02-01T13:27:41;20.77;;;8.50;;
19664;SDS011;9980;51.020;7.772;2023-02-01T13:30:12;19.27;;;8.63;;
19664;SDS011;9980;51.020;7.772;2023-02-01T13:42:48;17.57;;;8.87;;
19664;SDS011;9980;51.020;7.772;2023-02-01T13:45:26;16.13;;;7.87;;
19664;SDS011;9980;51.020;7.772;2023-02-01T13:47:57;11.93;;;7.47;;
19664;SDS011;9980;51.020;7.772;2023-02-01T13:53:05;9.93;;;7.07;;
19664;SDS011;9980;51.020;7.772;2023-02-01T13:55:46;12.87;;;7.13;;
19664;SDS011;9980;51.020;7.772;2023-02-01T13:58:31;12.57;;;6.97;;
19664;SDS011;9980;51.020;7.772;2023-02-01T14:03:58;11.40;;;6.67;;
19664;SDS011;9980;51.020;7.772;2023-02-01T14:11:53;12.17;;;6.63;;
19664;SDS011;9980;51.020;7.772;2023-02-01T14:19:20;12.23;;;6.27;;
19664;SDS011;9980;51.020;7.772;2023-02-01T14:21:58;12.17;;;6.70;;
19664;SDS011;9980;51.020;7.772;2023-02-01T14:24:55;11.53;;;5.77;;
19664;SDS011;9980;51.020;7.772;2023-02-01T14:27:24;13.70;;;6.53;;
19664;SDS011;9980;51.020;7.772;2023-02-01T14:29:58;13.40;;;6.17;;
19664;SDS011;9980;51.020;7.772;2023-02-01T14:32:31;9.90;;;5.83;;
19664;SDS011;9980;51.020;7.772;2023-02-01T14:35:24;12.20;;;7.33;;
19664;SDS011;9980;51.020;7.772;2023-02-01T14:37:53;11.43;;;6.23;;
19664;SDS011;9980;51.020;7.772;2023-02-01T14:40:28;13.60;;;5.90;;
19664;SDS011;9980;51.020;7.772;2023-02-01T14:42:55;18.47;;;6.87;;
19664;SDS011;9980;51.020;7.772;2023-02-01T14:47:50;17.43;;;6.43;;
19664;SDS011;9980;51.020;7.772;2023-02-01T14:50:44;9.90;;;5.73;;
19664;SDS011;9980;51.020;7.772;2023-02-01T14:53:15;9.33;;;5.90;;
19664;SDS011;9980;51.020;7.772;2023-02-01T14:55:59;9.50;;;6.33;;
19664;SDS011;9980;51.020;7.772;2023-02-01T14:58:41;15.17;;;6.73;;
19664;SDS011;9980;51.020;7.772;2023-02-01T15:01:32;13.63;;;6.33;;
19664;SDS011;9980;51.020;7.772;2023-02-01T15:04:06;15.83;;;6.13;;
19664;SDS011;9980;51.020;7.772;2023-02-01T15:09:20;10.37;;;6.13;;
19664;SDS011;9980;51.020;7.772;2023-02-01T15:11:56;14.87;;;6.30;;
19664;SDS011;9980;51.020;7.772;2023-02-01T15:14:29;11.23;;;5.40;;
19664;SDS011;9980;51.020;7.772;2023-02-01T15:17:01;15.63;;;6.13;;
19664;SDS011;9980;51.020;7.772;2023-02-01T15:19:51;11.43;;;5.77;;
19664;SDS011;9980;51.020;7.772;2023-02-01T15:22:23;13.43;;;6.10;;
19664;SDS011;9980;51.020;7.772;2023-02-01T15:24:52;14.83;;;5.47;;
19664;SDS011;9980;51.020;7.772;2023-02-01T15:27:23;12.10;;;5.20;;
19664;SDS011;9980;51.020;7.772;2023-02-01T15:29:51;11.90;;;5.57;;
19664;SDS011;9980;51.020;7.772;2023-02-01T15:32:30;16.00;;;6.00;;
19664;SDS011;9980;51.020;7.772;2023-02-01T15:35:05;16.50;;;5.83;;
19664;SDS011;9980;51.020;7.772;2023-02-01T15:38:29;13.70;;;5.57;;
19664;SDS011;9980;51.020;7.772;2023-02-01T15:46:33;12.13;;;5.60;;
19664;SDS011;9980;51.020;7.772;2023-02-01T15:49:05;13.47;;;6.07;;
19664;SDS011;9980;51.020;7.772;2023-02-01T15:51:53;13.27;;;5.30;;
19664;SDS011;9980;51.020;7.772;2023-02-01T15:57:02;13.30;;;5.97;;
19664;SDS011;9980;51.020;7.772;2023-02-01T15:59:32;12.07;;;5.83;;
19664;SDS011;9980;51.020;7.772;2023-02-01T16:05:36;12.07;;;5.80;;
19664;SDS011;9980;51.020;7.772;2023-02-01T16:10:43;14.30;;;5.90;;
19664;SDS011;9980;51.020;7.772;2023-02-01T16:13:12;23.03;;;7.67;;
19664;SDS011;9980;51.020;7.772;2023-02-01T16:15:40;7.70;;;5.40;;
19664;SDS011;9980;51.020;7.772;2023-02-01T16:18:08;14.70;;;6.30;;
19664;SDS011;9980;51.020;7.772;2023-02-01T16:20:36;12.87;;;6.43;;
19664;SDS011;9980;51.020;7.772;2023-02-01T16:23:04;10.90;;;6.23;;
19664;SDS011;9980;51.020;7.772;2023-02-01T16:25:32;13.50;;;6.13;;
19664;SDS011;9980;51.020;7.772;2023-02-01T16:27:59;8.67;;;5.43;;
19664;SDS011;9980;51.020;7.772;2023-02-01T16:30:25;12.10;;;6.13;;
19664;SDS011;9980;51.020;7.772;2023-02-01T16:32:55;10.60;;;6.00;;
19664;SDS011;9980;51.020;7.772;2023-02-01T16:35:34;16.07;;;6.13;;
19664;SDS011;9980;51.020;7.772;2023-02-01T16:38:03;16.37;;;5.83;;
19664;SDS011;9980;51.020;7.772;2023-02-01T16:40:37;11.33;;;5.30;;
19664;SDS011;9980;51.020;7.772;2023-02-01T16:43:13;12.07;;;5.83;;
19664;SDS011;9980;51.020;7.772;2023-02-01T16:45:49;22.77;;;6.43;;
19664;SDS011;9980;51.020;7.772;2023-02-01T16:50:49;10.47;;;4.90;;
19664;SDS011;9980;51.020;7.772;2023-02-01T16:53:19;14.90;;;6.33;;
19664;SDS011;9980;51.020;7.772;2023-02-01T16:55:47;10.77;;;6.37;;
19664;SDS011;9980;51.020;7.772;2023-02-01T16:58:15;14.00;;;5.70;;
19664;SDS011;9980;51.020;7.772;2023-02-01T17:00:42;16.13;;;6.33;;
19664;SDS011;9980;51.020;7.772;2023-02-01T17:03:13;10.90;;;5.47;;
19664;SDS011;9980;51.020;7.772;2023-02-01T17:05:45;15.87;;;6.17;;
19664;SDS011;9980;51.020;7.772;2023-02-01T17:08:30;14.90;;;5.40;;
19664;SDS011;9980;51.020;7.772;2023-02-01T17:11:00;17.33;;;6.17;;
19664;SDS011;9980;51.020;7.772;2023-02-01T17:13:28;14.23;;;5.53;;
19664;SDS011;9980;51.020;7.772;2023-02-01T17:15:59;12.20;;;5.93;;
19664;SDS011;9980;51.020;7.772;2023-02-01T17:18:35;13.37;;;6.07;;
19664;SDS011;9980;51.020;7.772;2023-02-01T17:21:02;8.67;;;5.90;;
19664;SDS011;9980;51.020;7.772;2023-02-01T17:23:30;15.10;;;6.00;;
19664;SDS011;9980;51.020;7.772;2023-02-01T17:25:57;11.73;;;5.43;;
19664;SDS011;9980;51.020;7.772;2023-02-01T17:28:24;12.93;;;6.23;;
19664;SDS011;9980;51.020;7.772;2023-02-01T17:30:50;12.50;;;6.30;;
19664;SDS011;9980;51.020;7.772;2023-02-01T17:33:23;18.53;;;6.33;;
19664;SDS011;9980;51.020;7.772;2023-02-01T17:35:54;9.80;;;6.03;;
19664;SDS011;9980;51.020;7.772;2023-02-01T17:38:21;14.63;;;6.90;;